sensor_id;sensor_type;location;lat;lon;timestamp;P1;durP1;ratioP1;P2;durP2;ratioP2
68256;SDS011;55069;51.568;4.656;2022-09-16T00:00:21;6.73;;;0.60;;
68256;SDS011;55069;51.568;4.656;2022-09-16T00:02:50;4.20;;;0.65;;
68256;SDS011;55069;51.568;4.656;2022-09-16T00:05:16;3.97;;;0.63;;
68256;SDS011;55069;51.568;4.656;2022-09-16T00:07:42;7.67;;;0.70;;
68256;SDS011;55069;51.568;4.656;2022-09-16T00:10:08;7.20;;;1.13;;
68256;SDS011;55069;51.568;4.656;2022-09-16T00:12:34;4.95;;;1.00;;
68256;SDS011;55069;51.568;4.656;2022-09-16T00:14:59;5.03;;;0.90;;
68256;SDS011;55069;51.568;4.656;2022-09-16T00:17:25;8.68;;;0.85;;
68256;SDS011;55069;51.568;4.656;2022-09-16T00:19:50;5.50;;;0.90;;
68256;SDS011;55069;51.568;4.656;2022-09-16T00:22:16;3.97;;;0.88;;
68256;SDS011;55069;51.568;4.656;2022-09-16T00:24:42;3.67;;;0.98;;
68256;SDS011;55069;51.568;4.656;2022-09-16T00:27:08;2.97;;;0.93;;
68256;SDS011;55069;51.568;4.656;2022-09-16T00:29:34;4.10;;;1.07;;
68256;SDS011;55069;51.568;4.656;2022-09-16T00:32:00;4.70;;;1.17;;
68256;SDS011;55069;51.568;4.656;2022-09-16T00:34:26;4.57;;;1.00;;
68256;SDS011;55069;51.568;4.656;2022-09-16T00:36:51;5.85;;;1.10;;
68256;SDS011;55069;51.568;4.656;2022-09-16T00:39:17;6.80;;;1.27;;
68256;SDS011;55069;51.568;4.656;2022-09-16T00:41:42;8.73;;;1.30;;
68256;SDS011;55069;51.568;4.656;2022-09-16T00:47:13;2.42;;;0.85;;
68256;SDS011;55069;51.568;4.656;2022-09-16T00:49:42;10.40;;;1.57;;
68256;SDS011;55069;51.568;4.656;2022-09-16T00:52:08;5.60;;;1.30;;
68256;SDS011;55069;51.568;4.656;2022-09-16T00:54:34;7.53;;;1.90;;
68256;SDS011;55069;51.568;4.656;2022-09-16T00:57:03;8.07;;;1.90;;
68256;SDS011;55069;51.568;4.656;2022-09-16T00:59:32;5.90;;;2.03;;
68256;SDS011;55069;51.568;4.656;2022-09-16T01:02:03;5.05;;;2.03;;
68256;SDS011;55069;51.568;4.656;2022-09-16T01:04:34;7.75;;;1.65;;
68256;SDS011;55069;51.568;4.656;2022-09-16T01:07:05;6.63;;;1.10;;
68256;SDS011;55069;51.568;4.656;2022-09-16T01:09:31;6.57;;;1.40;;
68256;SDS011;55069;51.568;4.656;2022-09-16T01:11:57;6.63;;;1.42;;
68256;SDS011;55069;51.568;4.656;2022-09-16T01:14:23;10.20;;;2.03;;
68256;SDS011;55069;51.568;4.656;2022-09-16T01:34:01;7.47;;;0.80;;
68256;SDS011;55069;51.568;4.656;2022-09-16T01:39:17;4.10;;;0.50;;
68256;SDS011;55069;51.568;4.656;2022-09-16T01:47:51;4.20;;;0.60;;
68256;SDS011;55069;51.568;4.656;2022-09-16T01:50:47;2.33;;;0.40;;
68256;SDS011;55069;51.568;4.656;2022-09-16T01:53:20;3.50;;;0.33;;
68256;SDS011;55069;51.568;4.656;2022-09-16T01:55:56;6.65;;;0.68;;
68256;SDS011;55069;51.568;4.656;2022-09-16T02:01:24;4.07;;;0.40;;
68256;SDS011;55069;51.568;4.656;2022-09-16T02:04:01;4.22;;;0.50;;
68256;SDS011;55069;51.568;4.656;2022-09-16T02:06:31;3.37;;;0.43;;
68256;SDS011;55069;51.568;4.656;2022-09-16T02:09:00;2.08;;;0.50;;
68256;SDS011;55069;51.568;4.656;2022-09-16T02:11:29;3.80;;;0.40;;
68256;SDS011;55069;51.568;4.656;2022-09-16T02:14:01;4.37;;;0.50;;
68256;SDS011;55069;51.568;4.656;2022-09-16T02:16:39;5.20;;;0.38;;
68256;SDS011;55069;51.568;4.656;2022-09-16T02:19:32;1.85;;;0.38;;
68256;SDS011;55069;51.568;4.656;2022-09-16T02:22:05;6.03;;;0.45;;
68256;SDS011;55069;51.568;4.656;2022-09-16T02:24:37;7.90;;;0.50;;
68256;SDS011;55069;51.568;4.656;2022-09-16T02:27:05;4.50;;;0.50;;
68256;SDS011;55069;51.568;4.656;2022-09-16T02:29:39;1.98;;;0.30;;
68256;SDS011;55069;51.568;4.656;2022-09-16T02:32:09;5.05;;;0.47;;
68256;SDS011;55069;51.568;4.656;2022-09-16T02:34:38;4.90;;;0.80;;
68256;SDS011;55069;51.568;4.656;2022-09-16T02:37:11;4.28;;;0.40;;
68256;SDS011;55069;51.568;4.656;2022-09-16T02:39:42;4.07;;;0.50;;
68256;SDS011;55069;51.568;4.656;2022-09-16T02:42:12;3.35;;;0.82;;
68256;SDS011;55069;51.568;4.656;2022-09-16T02:44:38;3.85;;;0.30;;
68256;SDS011;55069;51.568;4.656;2022-09-16T02:47:08;5.68;;;0.60;;
68256;SDS011;55069;51.568;4.656;2022-09-16T02:49:39;3.70;;;0.40;;
68256;SDS011;55069;51.568;4.656;2022-09-16T02:55:13;3.08;;;0.50;;
68256;SDS011;55069;51.568;4.656;2022-09-16T02:57:47;2.80;;;0.50;;
68256;SDS011;55069;51.568;4.656;2022-09-16T03:00:13;2.03;;;0.43;;
68256;SDS011;55069;51.568;4.656;2022-09-16T03:02:39;2.77;;;0.33;;
68256;SDS011;55069;51.568;4.656;2022-09-16T03:05:05;3.40;;;0.50;;
68256;SDS011;55069;51.568;4.656;2022-09-16T03:07:31;4.28;;;0.63;;
68256;SDS011;55069;51.568;4.656;2022-09-16T03:09:57;7.03;;;0.60;;
68256;SDS011;55069;51.568;4.656;2022-09-16T03:18:36;8.07;;;0.60;;
68256;SDS011;55069;51.568;4.656;2022-09-16T03:34:37;8.35;;;0.30;;
68256;SDS011;55069;51.568;4.656;2022-09-16T03:37:17;8.95;;;0.63;;
68256;SDS011;55069;51.568;4.656;2022-09-16T03:39:51;11.13;;;1.02;;
68256;SDS011;55069;51.568;4.656;2022-09-16T03:42:20;10.50;;;1.08;;
68256;SDS011;55069;51.568;4.656;2022-09-16T03:44:46;6.23;;;0.97;;
68256;SDS011;55069;51.568;4.656;2022-09-16T03:47:12;4.78;;;0.57;;
68256;SDS011;55069;51.568;4.656;2022-09-16T03:49:37;9.10;;;0.60;;
68256;SDS011;55069;51.568;4.656;2022-09-16T03:52:03;6.40;;;0.60;;
68256;SDS011;55069;51.568;4.656;2022-09-16T03:54:32;7.85;;;0.60;;
68256;SDS011;55069;51.568;4.656;2022-09-16T03:56:59;5.18;;;0.50;;
68256;SDS011;55069;51.568;4.656;2022-09-16T03:59:24;8.83;;;0.70;;
68256;SDS011;55069;51.568;4.656;2022-09-16T04:01:53;11.75;;;0.90;;
68256;SDS011;55069;51.568;4.656;2022-09-16T04:04:19;6.88;;;0.70;;
68256;SDS011;55069;51.568;4.656;2022-09-16T04:06:44;5.43;;;0.67;;
68256;SDS011;55069;51.568;4.656;2022-09-16T04:09:10;5.13;;;0.93;;
68256;SDS011;55069;51.568;4.656;2022-09-16T04:11:36;12.45;;;1.42;;
68256;SDS011;55069;51.568;4.656;2022-09-16T04:14:02;6.70;;;0.70;;
68256;SDS011;55069;51.568;4.656;2022-09-16T04:16:28;4.30;;;0.60;;
68256;SDS011;55069;51.568;4.656;2022-09-16T04:18:55;4.37;;;0.70;;
68256;SDS011;55069;51.568;4.656;2022-09-16T04:21:21;6.30;;;0.80;;
68256;SDS011;55069;51.568;4.656;2022-09-16T04:23:47;6.80;;;0.70;;
68256;SDS011;55069;51.568;4.656;2022-09-16T04:26:13;4.40;;;0.60;;
68256;SDS011;55069;51.568;4.656;2022-09-16T04:28:39;4.90;;;0.80;;
68256;SDS011;55069;51.568;4.656;2022-09-16T04:31:06;4.55;;;0.50;;
68256;SDS011;55069;51.568;4.656;2022-09-16T04:33:35;5.20;;;0.70;;
68256;SDS011;55069;51.568;4.656;2022-09-16T04:36:08;7.57;;;1.17;;
68256;SDS011;55069;51.568;4.656;2022-09-16T04:38:39;5.93;;;0.77;;
68256;SDS011;55069;51.568;4.656;2022-09-16T04:43:36;5.72;;;0.85;;
68256;SDS011;55069;51.568;4.656;2022-09-16T04:46:03;3.73;;;0.77;;
68256;SDS011;55069;51.568;4.656;2022-09-16T04:48:29;3.20;;;0.47;;
68256;SDS011;55069;51.568;4.656;2022-09-16T04:51:00;4.10;;;0.52;;
68256;SDS011;55069;51.568;4.656;2022-09-16T04:53:31;4.38;;;0.60;;
68256;SDS011;55069;51.568;4.656;2022-09-16T04:56:07;6.00;;;0.67;;
68256;SDS011;55069;51.568;4.656;2022-09-16T04:58:57;3.92;;;0.70;;
68256;SDS011;55069;51.568;4.656;2022-09-16T05:01:28;7.07;;;1.15;;
68256;SDS011;55069;51.568;4.656;2022-09-16T05:03:56;6.97;;;0.50;;
68256;SDS011;55069;51.568;4.656;2022-09-16T05:06:24;4.65;;;0.65;;
68256;SDS011;55069;51.568;4.656;2022-09-16T05:08:52;2.77;;;0.53;;
68256;SDS011;55069;51.568;4.656;2022-09-16T05:11:26;5.30;;;0.60;;
68256;SDS011;55069;51.568;4.656;2022-09-16T05:13:53;3.08;;;0.57;;
68256;SDS011;55069;51.568;4.656;2022-09-16T05:16:22;7.07;;;0.70;;
68256;SDS011;55069;51.568;4.656;2022-09-16T05:18:50;4.93;;;0.50;;
68256;SDS011;55069;51.568;4.656;2022-09-16T05:21:18;1.92;;;0.50;;
68256;SDS011;55069;51.568;4.656;2022-09-16T05:23:45;4.63;;;0.55;;
68256;SDS011;55069;51.568;4.656;2022-09-16T05:26:13;4.18;;;0.90;;
68256;SDS011;55069;51.568;4.656;2022-09-16T05:28:40;2.80;;;0.50;;
68256;SDS011;55069;51.568;4.656;2022-09-16T05:31:06;2.97;;;0.70;;
68256;SDS011;55069;51.568;4.656;2022-09-16T05:33:33;3.72;;;0.70;;
68256;SDS011;55069;51.568;4.656;2022-09-16T05:36:05;4.00;;;0.87;;
68256;SDS011;55069;51.568;4.656;2022-09-16T05:38:33;6.28;;;0.90;;
68256;SDS011;55069;51.568;4.656;2022-09-16T05:40:59;4.63;;;0.73;;
68256;SDS011;55069;51.568;4.656;2022-09-16T05:43:25;8.00;;;1.13;;
68256;SDS011;55069;51.568;4.656;2022-09-16T05:45:52;5.15;;;1.00;;
68256;SDS011;55069;51.568;4.656;2022-09-16T05:48:18;7.65;;;1.05;;
68256;SDS011;55069;51.568;4.656;2022-09-16T05:50:51;5.35;;;0.88;;
68256;SDS011;55069;51.568;4.656;2022-09-16T05:53:17;5.80;;;1.35;;
68256;SDS011;55069;51.568;4.656;2022-09-16T05:55:52;4.68;;;0.90;;
68256;SDS011;55069;51.568;4.656;2022-09-16T05:58:25;2.53;;;0.70;;
68256;SDS011;55069;51.568;4.656;2022-09-16T06:00:59;6.45;;;1.63;;
68256;SDS011;55069;51.568;4.656;2022-09-16T06:03:26;4.85;;;1.25;;
68256;SDS011;55069;51.568;4.656;2022-09-16T06:05:59;7.28;;;0.75;;
68256;SDS011;55069;51.568;4.656;2022-09-16T06:08:35;9.57;;;1.60;;
68256;SDS011;55069;51.568;4.656;2022-09-16T06:11:02;4.40;;;1.03;;
68256;SDS011;55069;51.568;4.656;2022-09-16T06:13:29;3.70;;;1.05;;
68256;SDS011;55069;51.568;4.656;2022-09-16T06:15:55;8.65;;;1.30;;
68256;SDS011;55069;51.568;4.656;2022-09-16T06:18:25;3.63;;;0.93;;
68256;SDS011;55069;51.568;4.656;2022-09-16T06:20:52;7.63;;;1.13;;
68256;SDS011;55069;51.568;4.656;2022-09-16T06:23:18;8.02;;;0.90;;
68256;SDS011;55069;51.568;4.656;2022-09-16T06:25:44;7.83;;;1.30;;
68256;SDS011;55069;51.568;4.656;2022-09-16T06:28:09;9.55;;;1.50;;
68256;SDS011;55069;51.568;4.656;2022-09-16T06:30:38;7.10;;;1.23;;
68256;SDS011;55069;51.568;4.656;2022-09-16T06:33:04;9.90;;;1.27;;
68256;SDS011;55069;51.568;4.656;2022-09-16T06:35:30;13.65;;;1.67;;
68256;SDS011;55069;51.568;4.656;2022-09-16T06:37:57;9.35;;;2.03;;
68256;SDS011;55069;51.568;4.656;2022-09-16T06:40:24;6.87;;;1.67;;
68256;SDS011;55069;51.568;4.656;2022-09-16T06:42:53;11.38;;;2.00;;
68256;SDS011;55069;51.568;4.656;2022-09-16T06:45:19;8.43;;;2.70;;
68256;SDS011;55069;51.568;4.656;2022-09-16T06:47:45;8.82;;;1.48;;
68256;SDS011;55069;51.568;4.656;2022-09-16T06:50:11;7.33;;;1.77;;
68256;SDS011;55069;51.568;4.656;2022-09-16T06:52:36;4.87;;;1.30;;
68256;SDS011;55069;51.568;4.656;2022-09-16T06:55:02;7.10;;;1.00;;
68256;SDS011;55069;51.568;4.656;2022-09-16T06:57:28;7.85;;;1.30;;
68256;SDS011;55069;51.568;4.656;2022-09-16T06:59:54;6.07;;;1.20;;
68256;SDS011;55069;51.568;4.656;2022-09-16T07:02:20;7.95;;;1.48;;
68256;SDS011;55069;51.568;4.656;2022-09-16T07:04:45;4.37;;;1.10;;
68256;SDS011;55069;51.568;4.656;2022-09-16T07:07:11;8.70;;;1.07;;
68256;SDS011;55069;51.568;4.656;2022-09-16T07:09:37;7.10;;;1.92;;
68256;SDS011;55069;51.568;4.656;2022-09-16T07:12:04;4.22;;;1.00;;
68256;SDS011;55069;51.568;4.656;2022-09-16T07:14:30;4.80;;;1.17;;
68256;SDS011;55069;51.568;4.656;2022-09-16T07:16:59;8.67;;;1.40;;
68256;SDS011;55069;51.568;4.656;2022-09-16T07:19:25;9.13;;;1.55;;
68256;SDS011;55069;51.568;4.656;2022-09-16T07:21:51;6.32;;;1.13;;
68256;SDS011;55069;51.568;4.656;2022-09-16T07:24:18;4.85;;;1.48;;
68256;SDS011;55069;51.568;4.656;2022-09-16T07:26:44;5.07;;;1.13;;
68256;SDS011;55069;51.568;4.656;2022-09-16T07:29:13;5.13;;;1.15;;
68256;SDS011;55069;51.568;4.656;2022-09-16T07:31:40;3.55;;;0.80;;
68256;SDS011;55069;51.568;4.656;2022-09-16T07:34:07;8.90;;;1.13;;
68256;SDS011;55069;51.568;4.656;2022-09-16T07:39:05;4.45;;;0.50;;
68256;SDS011;55069;51.568;4.656;2022-09-16T07:41:33;5.93;;;0.80;;
68256;SDS011;55069;51.568;4.656;2022-09-16T07:44:03;9.15;;;0.90;;
68256;SDS011;55069;51.568;4.656;2022-09-16T07:46:31;8.00;;;1.15;;
68256;SDS011;55069;51.568;4.656;2022-09-16T07:48:58;7.77;;;0.93;;
68256;SDS011;55069;51.568;4.656;2022-09-16T07:51:26;9.10;;;1.10;;
68256;SDS011;55069;51.568;4.656;2022-09-16T07:53:55;8.48;;;0.80;;
68256;SDS011;55069;51.568;4.656;2022-09-16T07:56:24;5.80;;;0.60;;
68256;SDS011;55069;51.568;4.656;2022-09-16T07:58:51;9.82;;;1.13;;
68256;SDS011;55069;51.568;4.656;2022-09-16T08:01:18;4.53;;;0.60;;
68256;SDS011;55069;51.568;4.656;2022-09-16T08:03:44;5.53;;;0.60;;
68256;SDS011;55069;51.568;4.656;2022-09-16T08:06:11;9.95;;;1.23;;
68256;SDS011;55069;51.568;4.656;2022-09-16T08:08:39;8.18;;;0.90;;
68256;SDS011;55069;51.568;4.656;2022-09-16T08:11:05;12.60;;;1.10;;
68256;SDS011;55069;51.568;4.656;2022-09-16T08:13:32;9.25;;;0.90;;
68256;SDS011;55069;51.568;4.656;2022-09-16T08:15:59;8.82;;;0.80;;
68256;SDS011;55069;51.568;4.656;2022-09-16T08:18:29;14.43;;;1.65;;
68256;SDS011;55069;51.568;4.656;2022-09-16T08:20:55;6.47;;;1.00;;
68256;SDS011;55069;51.568;4.656;2022-09-16T08:23:21;8.77;;;1.00;;
68256;SDS011;55069;51.568;4.656;2022-09-16T08:25:54;7.82;;;0.65;;
68256;SDS011;55069;51.568;4.656;2022-09-16T08:28:22;4.73;;;0.60;;
68256;SDS011;55069;51.568;4.656;2022-09-16T08:30:47;9.70;;;1.33;;
68256;SDS011;55069;51.568;4.656;2022-09-16T08:33:13;6.43;;;1.00;;
68256;SDS011;55069;51.568;4.656;2022-09-16T08:35:38;6.43;;;0.67;;
68256;SDS011;55069;51.568;4.656;2022-09-16T08:38:04;5.22;;;0.68;;
68256;SDS011;55069;51.568;4.656;2022-09-16T08:40:32;5.67;;;0.67;;
68256;SDS011;55069;51.568;4.656;2022-09-16T08:45:30;6.93;;;0.82;;
68256;SDS011;55069;51.568;4.656;2022-09-16T08:50:47;5.03;;;0.40;;
68256;SDS011;55069;51.568;4.656;2022-09-16T08:53:16;11.10;;;1.73;;
68256;SDS011;55069;51.568;4.656;2022-09-16T08:55:49;5.88;;;1.00;;
68256;SDS011;55069;51.568;4.656;2022-09-16T08:58:20;9.02;;;0.85;;
68256;SDS011;55069;51.568;4.656;2022-09-16T09:00:52;5.65;;;0.90;;
68256;SDS011;55069;51.568;4.656;2022-09-16T09:03:35;6.03;;;0.80;;
68256;SDS011;55069;51.568;4.656;2022-09-16T09:08:49;5.18;;;0.60;;
68256;SDS011;55069;51.568;4.656;2022-09-16T09:11:34;6.03;;;0.70;;
68256;SDS011;55069;51.568;4.656;2022-09-16T09:17:18;8.77;;;0.80;;
68256;SDS011;55069;51.568;4.656;2022-09-16T09:22:28;4.35;;;0.80;;
68256;SDS011;55069;51.568;4.656;2022-09-16T09:25:21;8.05;;;0.60;;
68256;SDS011;55069;51.568;4.656;2022-09-16T09:27:57;3.28;;;0.75;;
68256;SDS011;55069;51.568;4.656;2022-09-16T09:30:49;5.03;;;0.80;;
68256;SDS011;55069;51.568;4.656;2022-09-16T09:36:17;4.50;;;0.70;;
68256;SDS011;55069;51.568;4.656;2022-09-16T09:46:59;7.28;;;0.70;;
68256;SDS011;55069;51.568;4.656;2022-09-16T09:49:32;11.30;;;1.00;;
68256;SDS011;55069;51.568;4.656;2022-09-16T09:54:29;15.23;;;1.67;;
68256;SDS011;55069;51.568;4.656;2022-09-16T09:59:54;11.25;;;0.70;;
68256;SDS011;55069;51.568;4.656;2022-09-16T10:02:26;5.90;;;0.70;;
68256;SDS011;55069;51.568;4.656;2022-09-16T10:04:51;4.70;;;0.60;;
68256;SDS011;55069;51.568;4.656;2022-09-16T10:07:18;6.37;;;0.60;;
68256;SDS011;55069;51.568;4.656;2022-09-16T10:09:52;4.20;;;0.50;;
68256;SDS011;55069;51.568;4.656;2022-09-16T10:12:31;9.88;;;0.73;;
68256;SDS011;55069;51.568;4.656;2022-09-16T10:14:58;7.82;;;0.70;;
68256;SDS011;55069;51.568;4.656;2022-09-16T10:17:24;4.33;;;0.50;;
68256;SDS011;55069;51.568;4.656;2022-09-16T10:19:55;4.18;;;0.50;;
68256;SDS011;55069;51.568;4.656;2022-09-16T10:22:27;7.03;;;0.60;;
68256;SDS011;55069;51.568;4.656;2022-09-16T10:25:00;4.80;;;0.70;;
68256;SDS011;55069;51.568;4.656;2022-09-16T10:27:33;7.25;;;0.80;;
68256;SDS011;55069;51.568;4.656;2022-09-16T10:32:32;4.75;;;0.80;;
68256;SDS011;55069;51.568;4.656;2022-09-16T10:35:27;5.47;;;0.68;;
68256;SDS011;55069;51.568;4.656;2022-09-16T10:37:58;3.55;;;0.60;;
68256;SDS011;55069;51.568;4.656;2022-09-16T10:40:27;4.50;;;0.57;;
68256;SDS011;55069;51.568;4.656;2022-09-16T10:42:55;4.37;;;0.40;;
68256;SDS011;55069;51.568;4.656;2022-09-16T10:45:30;5.10;;;0.47;;
68256;SDS011;55069;51.568;4.656;2022-09-16T10:48:00;4.30;;;0.60;;
68256;SDS011;55069;51.568;4.656;2022-09-16T10:50:30;2.15;;;0.30;;
68256;SDS011;55069;51.568;4.656;2022-09-16T10:52:55;3.43;;;0.30;;
68256;SDS011;55069;51.568;4.656;2022-09-16T10:55:23;3.70;;;0.55;;
68256;SDS011;55069;51.568;4.656;2022-09-16T10:57:51;3.05;;;0.30;;
68256;SDS011;55069;51.568;4.656;2022-09-16T11:00:22;6.03;;;0.60;;
68256;SDS011;55069;51.568;4.656;2022-09-16T11:08:18;7.43;;;0.87;;
68256;SDS011;55069;51.568;4.656;2022-09-16T11:14:04;3.85;;;0.60;;
68256;SDS011;55069;51.568;4.656;2022-09-16T11:21:51;7.37;;;1.00;;
68256;SDS011;55069;51.568;4.656;2022-09-16T11:24:51;4.07;;;0.55;;
68256;SDS011;55069;51.568;4.656;2022-09-16T11:41:00;11.30;;;1.33;;
68256;SDS011;55069;51.568;4.656;2022-09-16T11:46:26;4.57;;;0.90;;
68256;SDS011;55069;51.568;4.656;2022-09-16T11:52:07;6.40;;;0.80;;
68256;SDS011;55069;51.568;4.656;2022-09-16T11:57:28;5.13;;;0.63;;
68256;SDS011;55069;51.568;4.656;2022-09-16T12:07:56;5.27;;;0.80;;
68256;SDS011;55069;51.568;4.656;2022-09-16T12:13:12;1.58;;;0.47;;
68256;SDS011;55069;51.568;4.656;2022-09-16T12:15:54;6.68;;;1.55;;
68256;SDS011;55069;51.568;4.656;2022-09-16T12:18:25;4.07;;;0.38;;
68256;SDS011;55069;51.568;4.656;2022-09-16T12:21:01;2.57;;;0.40;;
68256;SDS011;55069;51.568;4.656;2022-09-16T12:23:35;2.22;;;0.43;;
68256;SDS011;55069;51.568;4.656;2022-09-16T12:26:18;2.10;;;0.47;;
68256;SDS011;55069;51.568;4.656;2022-09-16T12:34:50;6.00;;;0.47;;
68256;SDS011;55069;51.568;4.656;2022-09-16T12:45:46;3.22;;;0.70;;
68256;SDS011;55069;51.568;4.656;2022-09-16T13:01:45;5.70;;;0.43;;
68256;SDS011;55069;51.568;4.656;2022-09-16T13:04:15;3.33;;;0.30;;
68256;SDS011;55069;51.568;4.656;2022-09-16T13:06:45;5.80;;;1.02;;
68256;SDS011;55069;51.568;4.656;2022-09-16T13:09:23;2.67;;;0.40;;
68256;SDS011;55069;51.568;4.656;2022-09-16T13:12:01;4.93;;;0.50;;
68256;SDS011;55069;51.568;4.656;2022-09-16T13:14:36;3.80;;;0.60;;
68256;SDS011;55069;51.568;4.656;2022-09-16T13:17:10;3.15;;;0.65;;
68256;SDS011;55069;51.568;4.656;2022-09-16T13:30:32;5.97;;;0.82;;
68256;SDS011;55069;51.568;4.656;2022-09-16T13:33:01;7.40;;;0.93;;
68256;SDS011;55069;51.568;4.656;2022-09-16T13:35:46;2.22;;;0.30;;
68256;SDS011;55069;51.568;4.656;2022-09-16T13:40:39;5.30;;;0.60;;
68256;SDS011;55069;51.568;4.656;2022-09-16T13:43:16;2.67;;;0.50;;
68256;SDS011;55069;51.568;4.656;2022-09-16T13:45:44;4.40;;;0.50;;
68256;SDS011;55069;51.568;4.656;2022-09-16T13:50:45;2.37;;;0.60;;
68256;SDS011;55069;51.568;4.656;2022-09-16T13:53:33;3.47;;;0.57;;
68256;SDS011;55069;51.568;4.656;2022-09-16T14:02:08;5.63;;;0.52;;
68256;SDS011;55069;51.568;4.656;2022-09-16T14:15:42;4.22;;;0.32;;
68256;SDS011;55069;51.568;4.656;2022-09-16T14:18:12;4.13;;;0.60;;
68256;SDS011;55069;51.568;4.656;2022-09-16T14:23:30;4.05;;;0.50;;
68256;SDS011;55069;51.568;4.656;2022-09-16T14:26:14;3.90;;;0.40;;
68256;SDS011;55069;51.568;4.656;2022-09-16T14:28:41;6.47;;;0.68;;
68256;SDS011;55069;51.568;4.656;2022-09-16T14:31:08;3.90;;;0.40;;
68256;SDS011;55069;51.568;4.656;2022-09-16T14:38:56;3.33;;;0.40;;
68256;SDS011;55069;51.568;4.656;2022-09-16T14:47:17;9.07;;;0.88;;
68256;SDS011;55069;51.568;4.656;2022-09-16T14:49:48;3.72;;;0.70;;
68256;SDS011;55069;51.568;4.656;2022-09-16T14:52:21;3.90;;;0.40;;
68256;SDS011;55069;51.568;4.656;2022-09-16T14:54:49;7.85;;;0.98;;
68256;SDS011;55069;51.568;4.656;2022-09-16T14:57:18;4.55;;;0.60;;
68256;SDS011;55069;51.568;4.656;2022-09-16T14:59:47;8.88;;;0.88;;
68256;SDS011;55069;51.568;4.656;2022-09-16T15:10:44;5.57;;;0.50;;
68256;SDS011;55069;51.568;4.656;2022-09-16T15:13:12;3.53;;;0.43;;
68256;SDS011;55069;51.568;4.656;2022-09-16T15:15:51;6.88;;;0.57;;
68256;SDS011;55069;51.568;4.656;2022-09-16T15:18:25;4.30;;;0.40;;
68256;SDS011;55069;51.568;4.656;2022-09-16T15:21:04;7.25;;;0.70;;
68256;SDS011;55069;51.568;4.656;2022-09-16T15:23:32;4.40;;;0.50;;
68256;SDS011;55069;51.568;4.656;2022-09-16T15:29:01;5.25;;;0.82;;
68256;SDS011;55069;51.568;4.656;2022-09-16T15:36:46;6.97;;;1.20;;
68256;SDS011;55069;51.568;4.656;2022-09-16T15:39:22;6.05;;;0.63;;
68256;SDS011;55069;51.568;4.656;2022-09-16T15:44:48;6.80;;;0.87;;
68256;SDS011;55069;51.568;4.656;2022-09-16T15:47:19;6.70;;;0.88;;
68256;SDS011;55069;51.568;4.656;2022-09-16T15:49:49;6.10;;;1.13;;
68256;SDS011;55069;51.568;4.656;2022-09-16T15:52:23;11.43;;;1.35;;
68256;SDS011;55069;51.568;4.656;2022-09-16T15:54:51;7.57;;;1.10;;
68256;SDS011;55069;51.568;4.656;2022-09-16T15:57:28;10.55;;;1.13;;
68256;SDS011;55069;51.568;4.656;2022-09-16T16:00:07;4.25;;;0.80;;
68256;SDS011;55069;51.568;4.656;2022-09-16T16:02:44;12.30;;;1.05;;
68256;SDS011;55069;51.568;4.656;2022-09-16T16:07:46;7.50;;;1.00;;
68256;SDS011;55069;51.568;4.656;2022-09-16T16:10:21;4.80;;;0.93;;
68256;SDS011;55069;51.568;4.656;2022-09-16T16:12:49;8.88;;;1.42;;
68256;SDS011;55069;51.568;4.656;2022-09-16T16:15:17;4.88;;;1.10;;
68256;SDS011;55069;51.568;4.656;2022-09-16T16:17:46;10.23;;;1.27;;
68256;SDS011;55069;51.568;4.656;2022-09-16T16:20:13;7.82;;;1.13;;
68256;SDS011;55069;51.568;4.656;2022-09-16T16:22:39;9.07;;;0.70;;
68256;SDS011;55069;51.568;4.656;2022-09-16T16:25:05;3.53;;;0.77;;
68256;SDS011;55069;51.568;4.656;2022-09-16T16:27:31;9.90;;;0.90;;
68256;SDS011;55069;51.568;4.656;2022-09-16T16:29:57;8.07;;;1.20;;
68256;SDS011;55069;51.568;4.656;2022-09-16T16:32:23;7.28;;;1.05;;
68256;SDS011;55069;51.568;4.656;2022-09-16T16:34:49;6.53;;;0.82;;
68256;SDS011;55069;51.568;4.656;2022-09-16T16:37:16;8.43;;;1.17;;
68256;SDS011;55069;51.568;4.656;2022-09-16T16:39:43;8.98;;;1.42;;
68256;SDS011;55069;51.568;4.656;2022-09-16T16:42:12;5.35;;;1.00;;
68256;SDS011;55069;51.568;4.656;2022-09-16T16:44:38;10.35;;;1.08;;
68256;SDS011;55069;51.568;4.656;2022-09-16T16:47:05;7.67;;;0.90;;
68256;SDS011;55069;51.568;4.656;2022-09-16T16:49:32;9.50;;;1.00;;
68256;SDS011;55069;51.568;4.656;2022-09-16T16:51:58;11.70;;;0.85;;
68256;SDS011;55069;51.568;4.656;2022-09-16T16:54:24;10.48;;;1.20;;
68256;SDS011;55069;51.568;4.656;2022-09-16T16:56:51;7.50;;;1.58;;
68256;SDS011;55069;51.568;4.656;2022-09-16T16:59:17;10.32;;;1.45;;
68256;SDS011;55069;51.568;4.656;2022-09-16T17:01:43;14.85;;;1.48;;
68256;SDS011;55069;51.568;4.656;2022-09-16T17:04:09;10.53;;;1.10;;
68256;SDS011;55069;51.568;4.656;2022-09-16T17:06:36;6.57;;;1.13;;
68256;SDS011;55069;51.568;4.656;2022-09-16T17:09:06;9.27;;;0.90;;
68256;SDS011;55069;51.568;4.656;2022-09-16T17:11:34;8.68;;;1.17;;
68256;SDS011;55069;51.568;4.656;2022-09-16T17:14:04;7.78;;;0.90;;
68256;SDS011;55069;51.568;4.656;2022-09-16T17:16:31;14.43;;;1.10;;
68256;SDS011;55069;51.568;4.656;2022-09-16T17:18:58;12.07;;;2.58;;
68256;SDS011;55069;51.568;4.656;2022-09-16T17:21:26;12.60;;;1.50;;
68256;SDS011;55069;51.568;4.656;2022-09-16T17:23:53;8.00;;;0.90;;
68256;SDS011;55069;51.568;4.656;2022-09-16T17:26:20;6.38;;;1.00;;
68256;SDS011;55069;51.568;4.656;2022-09-16T17:28:47;16.60;;;1.73;;
68256;SDS011;55069;51.568;4.656;2022-09-16T17:31:19;15.00;;;1.80;;
68256;SDS011;55069;51.568;4.656;2022-09-16T17:33:49;10.32;;;1.23;;
68256;SDS011;55069;51.568;4.656;2022-09-16T17:36:18;11.98;;;1.55;;
68256;SDS011;55069;51.568;4.656;2022-09-16T17:38:45;13.57;;;1.52;;
68256;SDS011;55069;51.568;4.656;2022-09-16T17:41:11;15.37;;;1.40;;
68256;SDS011;55069;51.568;4.656;2022-09-16T17:43:39;8.65;;;1.08;;
68256;SDS011;55069;51.568;4.656;2022-09-16T17:46:06;7.15;;;1.15;;
68256;SDS011;55069;51.568;4.656;2022-09-16T17:48:35;7.17;;;0.90;;
68256;SDS011;55069;51.568;4.656;2022-09-16T17:51:02;9.60;;;1.05;;
68256;SDS011;55069;51.568;4.656;2022-09-16T17:53:28;11.18;;;1.67;;
68256;SDS011;55069;51.568;4.656;2022-09-16T17:56:00;13.53;;;1.77;;
68256;SDS011;55069;51.568;4.656;2022-09-16T17:58:40;14.25;;;1.60;;
68256;SDS011;55069;51.568;4.656;2022-09-16T18:01:11;13.20;;;1.65;;
68256;SDS011;55069;51.568;4.656;2022-09-16T18:03:42;10.43;;;1.30;;
68256;SDS011;55069;51.568;4.656;2022-09-16T18:06:13;11.07;;;1.27;;
68256;SDS011;55069;51.568;4.656;2022-09-16T18:08:40;5.40;;;1.00;;
68256;SDS011;55069;51.568;4.656;2022-09-16T18:11:07;9.38;;;1.05;;
68256;SDS011;55069;51.568;4.656;2022-09-16T18:13:34;8.85;;;0.88;;
68256;SDS011;55069;51.568;4.656;2022-09-16T18:16:01;5.82;;;0.70;;
68256;SDS011;55069;51.568;4.656;2022-09-16T18:18:32;9.00;;;1.10;;
68256;SDS011;55069;51.568;4.656;2022-09-16T18:21:00;10.07;;;1.63;;
68256;SDS011;55069;51.568;4.656;2022-09-16T18:23:27;11.70;;;1.25;;
68256;SDS011;55069;51.568;4.656;2022-09-16T18:25:54;15.00;;;1.50;;
68256;SDS011;55069;51.568;4.656;2022-09-16T18:28:20;9.90;;;1.38;;
68256;SDS011;55069;51.568;4.656;2022-09-16T18:30:46;7.05;;;0.75;;
68256;SDS011;55069;51.568;4.656;2022-09-16T18:33:12;12.40;;;1.50;;
68256;SDS011;55069;51.568;4.656;2022-09-16T18:35:37;9.88;;;0.70;;
68256;SDS011;55069;51.568;4.656;2022-09-16T18:38:04;6.05;;;0.77;;
68256;SDS011;55069;51.568;4.656;2022-09-16T18:40:31;7.43;;;1.43;;
68256;SDS011;55069;51.568;4.656;2022-09-16T18:42:57;6.55;;;1.15;;
68256;SDS011;55069;51.568;4.656;2022-09-16T18:45:23;5.43;;;1.10;;
68256;SDS011;55069;51.568;4.656;2022-09-16T18:47:50;8.15;;;1.13;;
68256;SDS011;55069;51.568;4.656;2022-09-16T18:50:17;8.43;;;0.93;;
68256;SDS011;55069;51.568;4.656;2022-09-16T18:52:45;9.83;;;1.70;;
68256;SDS011;55069;51.568;4.656;2022-09-16T18:55:11;2.88;;;0.75;;